Time;durP1;ratioP1;P1;durP2;ratioP2;P2;SDS_P1;SDS_P2;PMS_P1;PMS_P2;Temp;Humidity;BMP_temperature;BMP_pressure;BME280_temperature;BME280_humidity;BME280_pressure;Samples;Min_cycle;Max_cycle;Signal;HPM_P1;HPM_P2
2023/01/06 00:02:04;;;;;;;6.03;2.95;;;12.90;81.70;;;;;;5112041;28;20390;-75
2023/01/06 00:04:29;;;;;;;8.57;2.72;;;12.90;81.70;;;;;;5106925;28;20123;-75
2023/01/06 00:06:55;;;;;;;8.48;2.90;;;12.90;81.70;;;;;;5096025;28;20047;-75
2023/01/06 00:09:21;;;;;;;9.25;3.17;;;12.90;81.80;;;;;;5113426;28;20197;-75
2023/01/06 00:11:46;;;;;;;9.50;3.35;;;12.90;81.80;;;;;;5113907;28;20038;-76
2023/01/06 00:14:12;;;;;;;8.77;2.90;;;12.80;81.80;;;;;;5111509;28;20031;-75
2023/01/06 00:16:38;;;;;;;8.20;3.28;;;12.90;81.90;;;;;;5101270;28;20107;-75
2023/01/06 00:19:03;;;;;;;8.02;3.35;;;12.80;81.80;;;;;;5115101;28;20119;-76
2023/01/06 00:21:29;;;;;;;10.05;4.00;;;12.80;81.90;;;;;;5108321;28;20024;-75
2023/01/06 00:23:55;;;;;;;7.65;3.10;;;12.80;81.90;;;;;;5121766;28;20425;-75
2023/01/06 00:26:22;;;;;;;9.15;3.58;;;12.80;81.80;;;;;;5093653;28;20057;-75
2023/01/06 00:28:52;;;;;;;7.03;2.88;;;12.80;81.80;;;;;;5103989;28;20035;-75
2023/01/06 00:31:18;;;;;;;7.70;2.85;;;12.80;81.80;;;;;;5094628;28;20015;-74
2023/01/06 00:33:44;;;;;;;7.65;2.83;;;12.80;81.80;;;;;;5113675;28;20026;-75
2023/01/06 00:36:11;;;;;;;7.80;2.92;;;12.80;81.80;;;;;;5111805;28;20032;-75
2023/01/06 00:38:38;;;;;;;6.32;3.08;;;12.80;81.80;;;;;;5083792;28;20504;-75
2023/01/06 00:43:57;;;;;;;9.70;3.15;;;12.80;81.60;;;;;;5100419;28;20044;-75
2023/01/06 00:46:25;;;;;;;7.90;2.70;;;12.90;81.70;;;;;;5096803;28;20034;-76
2023/01/06 00:48:51;;;;;;;5.68;2.47;;;12.80;81.60;;;;;;5100224;28;20027;-76
2023/01/06 00:51:17;;;;;;;8.20;2.83;;;12.80;81.80;;;;;;5113507;28;20038;-75
2023/01/06 00:53:42;;;;;;;9.02;2.80;;;12.80;81.80;;;;;;5102154;28;20360;-75
2023/01/06 00:56:08;;;;;;;6.13;2.30;;;12.80;81.70;;;;;;5096139;28;20026;-76
2023/01/06 00:58:34;;;;;;;7.47;3.15;;;12.80;81.60;;;;;;5089845;28;20024;-75
2023/01/06 01:01:07;;;;;;;7.57;3.00;;;12.80;81.60;;;;;;5082826;28;20077;-76
2023/01/06 01:03:35;;;;;;;8.55;3.22;;;12.80;81.60;;;;;;5123403;27;20024;-74
2023/01/06 01:06:03;;;;;;;7.22;2.65;;;12.80;81.60;;;;;;5100478;28;20019;-75
2023/01/06 01:08:29;;;;;;;6.20;2.72;;;12.80;81.60;;;;;;5124410;27;20038;-75
2023/01/06 01:11:01;;;;;;;6.70;2.72;;;12.80;81.60;;;;;;5095950;28;20028;-75
2023/01/06 01:13:26;;;;;;;8.25;2.75;;;12.80;81.50;;;;;;5108364;28;20035;-75
2023/01/06 01:15:52;;;;;;;7.72;2.80;;;12.80;81.60;;;;;;5111427;28;20035;-75
2023/01/06 01:18:18;;;;;;;7.82;3.25;;;12.80;81.60;;;;;;5112241;28;20031;-75
2023/01/06 01:20:48;;;;;;;7.68;3.03;;;12.80;81.50;;;;;;5124917;28;20024;-74
2023/01/06 01:23:13;;;;;;;6.57;2.75;;;12.80;81.50;;;;;;5127509;28;20030;-74
2023/01/06 01:25:39;;;;;;;6.95;3.28;;;12.80;81.50;;;;;;5111769;28;20110;-74
2023/01/06 13:16:53;;;;;;;3.00;0.98;;;14.10;69.20;;;;;;4970189;28;20078;-70
2023/01/06 13:20:12;;;;;;;5.90;1.17;;;14.10;69.10;;;;;;5109369;28;20024;-73
2023/01/06 13:23:24;;;;;;;4.70;1.15;;;14.10;68.80;;;;;;5114351;28;20057;-73
2023/01/06 13:26:13;;;;;;;3.97;1.10;;;14.10;68.50;;;;;;5101756;27;20059;-72
2023/01/06 13:28:55;;;;;;;3.88;1.08;;;14.10;68.40;;;;;;5108787;28;20085;-72
2023/01/06 13:31:39;;;;;;;7.53;1.40;;;14.20;68.00;;;;;;5094492;28;20024;-72
2023/01/06 13:34:11;;;;;;;5.63;1.65;;;14.20;67.80;;;;;;5103962;28;20043;-72
2023/01/06 13:36:46;;;;;;;5.35;1.50;;;14.20;67.60;;;;;;5117863;27;20028;-72
2023/01/06 13:39:18;;;;;;;7.20;1.10;;;14.20;67.30;;;;;;5106861;27;20031;-72
2023/01/06 13:41:49;;;;;;;2.78;1.08;;;14.20;67.10;;;;;;5105655;28;20027;-72
2023/01/06 13:44:19;;;;;;;4.22;1.15;;;14.10;66.90;;;;;;5098550;28;20498;-72
2023/01/06 13:46:49;;;;;;;2.92;0.82;;;14.10;66.80;;;;;;5117204;28;20024;-72
2023/01/06 13:49:15;;;;;;;2.50;1.15;;;14.10;66.80;;;;;;5108717;28;20042;-73
2023/01/06 13:51:43;;;;;;;4.43;1.17;;;14.10;66.60;;;;;;5114489;28;20127;-71
2023/01/06 13:54:47;;;;;;;5.20;1.10;;;14.10;66.60;;;;;;5114691;28;20112;-72
2023/01/06 13:57:36;;;;;;;3.90;1.00;;;14.10;66.30;;;;;;5089257;28;20043;-71
2023/01/06 14:00:04;;;;;;;4.05;0.95;;;14.10;66.40;;;;;;5114180;28;20024;-71
2023/01/06 14:02:37;;;;;;;6.53;1.20;;;14.00;66.50;;;;;;5111216;28;20024;-70
2023/01/06 14:05:23;;;;;;;3.75;1.02;;;14.00;66.60;;;;;;5111966;27;20460;-71
2023/01/06 14:07:59;;;;;;;3.00;1.08;;;14.00;66.30;;;;;;5116402;28;20023;-71
2023/01/06 14:10:41;;;;;;;2.50;1.08;;;14.00;66.30;;;;;;5112240;28;20055;-69
2023/01/06 14:13:31;;;;;;;4.35;0.88;;;13.90;66.10;;;;;;5112983;28;20092;-70
2023/01/06 14:16:08;;;;;;;3.83;0.90;;;13.90;66.10;;;;;;5113648;28;20104;-70
2023/01/06 14:18:45;;;;;;;3.75;1.13;;;13.90;66.10;;;;;;5111356;28;20364;-71
2023/01/06 14:21:11;;;;;;;4.18;0.88;;;13.80;66.00;;;;;;5115469;28;20421;-71
2023/01/06 14:23:38;;;;;;;4.05;1.15;;;13.80;65.90;;;;;;5108647;28;20055;-71
2023/01/06 14:26:04;;;;;;;2.20;0.80;;;13.80;65.80;;;;;;5089669;28;20036;-71
2023/01/06 14:28:32;;;;;;;3.72;0.90;;;13.70;65.60;;;;;;5113708;28;20016;-71
2023/01/06 14:31:23;;;;;;;1.73;0.80;;;13.70;65.50;;;;;;5116097;28;20040;-71
2023/01/06 14:34:02;;;;;;;4.28;1.20;;;13.70;65.20;;;;;;5110572;28;20386;-70
2023/01/06 14:36:32;;;;;;;5.68;1.10;;;13.70;65.20;;;;;;5105117;27;20027;-71
2023/01/06 14:39:07;;;;;;;2.87;0.80;;;13.60;65.10;;;;;;5108325;28;20410;-71
2023/01/06 14:41:56;;;;;;;4.93;0.93;;;13.60;65.00;;;;;;5107743;28;20074;-71
2023/01/06 14:44:39;;;;;;;1.35;0.77;;;13.60;64.90;;;;;;5111654;28;20031;-71
2023/01/06 14:47:12;;;;;;;3.70;0.95;;;13.60;65.00;;;;;;5111374;28;20024;-71
2023/01/06 14:49:56;;;;;;;3.10;0.80;;;13.50;65.10;;;;;;5101797;27;20020;-70
2023/01/06 14:52:31;;;;;;;2.50;0.77;;;13.50;65.30;;;;;;5103975;28;20080;-71
2023/01/06 14:54:57;;;;;;;2.58;0.73;;;13.50;65.30;;;;;;5107854;28;20059;-71
2023/01/06 14:57:35;;;;;;;4.97;0.90;;;13.50;65.40;;;;;;5108949;27;20031;-71
2023/01/06 15:00:16;;;;;;;4.68;0.90;;;13.50;65.40;;;;;;5084091;28;20349;-71
2023/01/06 15:02:49;;;;;;;4.65;1.10;;;13.40;65.40;;;;;;5105242;28;20056;-71
2023/01/06 15:05:27;;;;;;;3.53;1.05;;;13.40;65.60;;;;;;5108097;27;20043;-71
2023/01/06 15:08:13;;;;;;;5.10;1.10;;;13.40;65.60;;;;;;5122850;27;20030;-71
2023/01/06 15:10:50;;;;;;;2.63;0.88;;;13.40;65.60;;;;;;5112676;27;20044;-70
2023/01/06 15:13:20;;;;;;;3.30;0.98;;;13.30;65.70;;;;;;5112231;27;20024;-70
2023/01/06 15:15:53;;;;;;;2.83;0.90;;;13.30;65.80;;;;;;5122953;27;20043;-70
2023/01/06 15:18:19;;;;;;;5.45;1.40;;;13.30;65.80;;;;;;5104478;28;20078;-70
2023/01/06 15:20:45;;;;;;;4.53;1.00;;;13.30;66.00;;;;;;5113398;27;20443;-71
2023/01/06 15:23:17;;;;;;;2.72;1.10;;;13.20;66.00;;;;;;5108952;27;20035;-71
2023/01/06 15:25:48;;;;;;;6.25;1.60;;;13.20;66.10;;;;;;5122711;27;20056;-71
2023/01/06 15:28:32;;;;;;;3.50;1.33;;;13.20;66.30;;;;;;5106222;28;20405;-72
2023/01/06 15:30:59;;;;;;;4.25;1.25;;;13.10;66.30;;;;;;5113048;28;20466;-72
2023/01/06 15:33:34;;;;;;;4.15;1.40;;;13.20;66.60;;;;;;5106267;28;20032;-73
2023/01/06 15:36:01;;;;;;;4.68;1.23;;;13.10;67.30;;;;;;5093743;28;20051;-73
2023/01/06 15:38:35;;;;;;;4.22;1.42;;;13.10;66.70;;;;;;5111406;28;20020;-73
2023/01/06 15:41:03;;;;;;;5.00;1.83;;;13.10;66.80;;;;;;5108238;28;20078;-73
2023/01/06 15:43:42;;;;;;;4.97;1.73;;;13.00;66.90;;;;;;5103693;28;20023;-78
2023/01/06 15:46:11;;;;;;;3.95;1.45;;;13.00;67.00;;;;;;5079716;28;20138;-70
2023/01/06 15:48:40;;;;;;;7.35;2.10;;;13.00;67.00;;;;;;5113241;28;20022;-71
2023/01/06 15:51:11;;;;;;;6.38;1.60;;;13.00;67.10;;;;;;5116604;27;20031;-72
2023/01/06 15:53:37;;;;;;;3.90;1.65;;;13.00;67.30;;;;;;5094353;28;20468;-73
2023/01/06 15:56:03;;;;;;;7.35;2.47;;;13.00;67.40;;;;;;5112338;27;20027;-72
2023/01/06 15:58:38;;;;;;;5.05;1.60;;;12.90;67.40;;;;;;5086248;28;20118;-72
2023/01/06 16:01:15;;;;;;;6.80;1.65;;;13.00;67.50;;;;;;5103722;28;20032;-72
2023/01/06 16:03:48;;;;;;;8.27;1.83;;;12.90;67.60;;;;;;5091891;28;20160;-71
2023/01/06 16:06:23;;;;;;;5.25;1.60;;;12.90;67.80;;;;;;5112549;28;20035;-72
2023/01/06 16:08:49;;;;;;;6.95;1.77;;;12.90;67.90;;;;;;5110255;28;20041;-70
2023/01/06 16:11:15;;;;;;;5.05;1.70;;;12.90;68.00;;;;;;5109653;28;20084;-70
2023/01/06 16:14:01;;;;;;;6.03;1.95;;;12.90;68.20;;;;;;5111107;27;20390;-74
2023/01/06 16:16:32;;;;;;;6.13;1.70;;;12.90;68.30;;;;;;5114587;28;20039;-73
2023/01/06 16:19:13;;;;;;;4.93;1.83;;;12.90;68.50;;;;;;5110953;28;20082;-72
2023/01/06 16:21:41;;;;;;;6.68;2.25;;;12.90;68.70;;;;;;5108946;28;20035;-73
2023/01/06 16:24:26;;;;;;;5.10;1.90;;;12.90;68.70;;;;;;5110233;28;20092;-71
2023/01/06 16:26:59;;;;;;;6.43;2.00;;;12.90;68.90;;;;;;5111848;28;20118;-72
2023/01/06 16:29:36;;;;;;;6.47;2.42;;;12.90;69.00;;;;;;5108142;28;20023;-73
2023/01/06 16:32:30;;;;;;;5.82;2.03;;;12.90;69.10;;;;;;5106885;28;20122;-73
2023/01/06 16:35:01;;;;;;;7.35;2.65;;;12.90;69.30;;;;;;5111419;28;20028;-73
2023/01/06 16:37:31;;;;;;;7.18;2.88;;;12.90;69.40;;;;;;5115330;27;20088;-72
2023/01/06 16:39:57;;;;;;;8.82;3.38;;;12.90;69.40;;;;;;5114168;27;20050;-72
2023/01/06 16:42:39;;;;;;;6.80;3.40;;;12.90;69.60;;;;;;5113216;27;20031;-73
2023/01/06 16:45:11;;;;;;;7.32;3.20;;;12.90;69.80;;;;;;5114024;27;20039;-72
2023/01/06 16:47:38;;;;;;;12.45;3.85;;;12.90;69.80;;;;;;5114163;28;20325;-73
2023/01/06 16:50:18;;;;;;;8.10;4.07;;;12.90;70.00;;;;;;5095877;28;20020;-73
2023/01/06 16:52:47;;;;;;;6.90;3.55;;;12.90;70.10;;;;;;5116005;28;20028;-73
2023/01/06 16:55:15;;;;;;;9.30;3.97;;;12.90;70.20;;;;;;5115492;27;20538;-73
2023/01/06 16:57:41;;;;;;;10.18;4.05;;;12.90;70.30;;;;;;5115441;28;20036;-72
2023/01/06 17:00:16;;;;;;;8.65;4.22;;;12.90;70.50;;;;;;5114591;28;20042;-73
2023/01/06 17:02:42;;;;;;;8.52;4.32;;;12.90;70.70;;;;;;5116830;28;20019;-72
2023/01/06 17:05:28;;;;;;;9.75;4.10;;;12.90;70.80;;;;;;5110694;28;20020;-72
2023/01/06 17:08:00;;;;;;;9.35;4.30;;;12.80;70.90;;;;;;5121978;27;20092;-73
2023/01/06 17:10:25;;;;;;;7.18;3.78;;;12.80;71.00;;;;;;5096074;28;20020;-72
2023/01/06 17:15:53;;;;;;;7.95;4.78;;;12.80;71.40;;;;;;5114359;28;20075;-72
2023/01/06 17:18:25;;;;;;;12.85;5.80;;;12.70;71.50;;;;;;5116545;27;20019;-73
2023/01/06 17:20:58;;;;;;;11.43;5.15;;;12.80;71.70;;;;;;5107043;27;20065;-73
2023/01/06 17:23:24;;;;;;;8.55;5.03;;;12.80;71.90;;;;;;5115416;28;20038;-72
2023/01/06 17:26:00;;;;;;;11.20;5.35;;;12.80;72.00;;;;;;5107428;28;20507;-72
2023/01/06 17:28:26;;;;;;;11.32;5.43;;;12.80;72.10;;;;;;5117321;27;20030;-73
2023/01/06 17:30:53;;;;;;;11.15;4.97;;;12.80;72.20;;;;;;5118149;27;20047;-73
2023/01/06 17:33:19;;;;;;;11.15;4.95;;;12.70;72.20;;;;;;5113688;28;20043;-72
2023/01/06 17:35:50;;;;;;;10.90;5.32;;;12.80;72.40;;;;;;5114094;27;20078;-72
2023/01/06 17:38:19;;;;;;;8.27;5.05;;;12.80;72.50;;;;;;5111438;28;20431;-73
2023/01/06 17:40:45;;;;;;;9.65;5.53;;;12.80;72.60;;;;;;5097109;28;20070;-72
2023/01/06 17:43:35;;;;;;;8.40;5.28;;;12.80;72.80;;;;;;5116755;28;20051;-72
2023/01/06 17:46:12;;;;;;;9.50;5.30;;;12.80;72.90;;;;;;5114232;27;20058;-74
2023/01/06 17:48:37;;;;;;;12.95;5.68;;;12.80;73.00;;;;;;5113830;28;20358;-74
2023/01/06 17:51:03;;;;;;;11.35;5.78;;;12.80;73.20;;;;;;5095150;27;20081;-72
2023/01/06 17:56:19;;;;;;;11.90;4.88;;;12.80;73.50;;;;;;5118322;27;20027;-73
2023/01/06 17:58:45;;;;;;;9.05;4.88;;;12.80;73.60;;;;;;5142746;27;20038;-73
2023/01/06 18:01:26;;;;;;;10.63;4.90;;;12.80;73.80;;;;;;5125250;28;20031;-74
2023/01/06 18:03:53;;;;;;;8.15;4.22;;;12.80;74.20;;;;;;5120558;28;20019;-75
2023/01/06 18:06:36;;;;;;;10.27;4.80;;;12.80;74.20;;;;;;5116960;28;20036;-74
2023/01/06 18:09:14;;;;;;;7.18;4.18;;;12.80;74.50;;;;;;5095215;28;20036;-73
2023/01/06 18:11:51;;;;;;;8.27;4.72;;;12.80;74.70;;;;;;5107278;27;20056;-75
2023/01/06 18:14:20;;;;;;;9.00;4.70;;;12.80;74.90;;;;;;5115902;28;20027;-74
2023/01/06 18:16:48;;;;;;;8.88;4.68;;;12.80;75.00;;;;;;5090900;27;20487;-74
2023/01/06 18:19:16;;;;;;;7.68;4.60;;;12.90;75.20;;;;;;5116399;28;20028;-74
2023/01/06 18:21:44;;;;;;;8.88;4.88;;;12.80;75.40;;;;;;5097974;27;20462;-75
2023/01/06 18:24:28;;;;;;;8.52;4.63;;;12.90;75.60;;;;;;5115898;27;20027;-76
2023/01/06 18:27:01;;;;;;;7.72;4.90;;;12.90;75.90;;;;;;5121564;27;20059;-75
2023/01/06 18:29:33;;;;;;;11.20;4.90;;;12.90;76.00;;;;;;5115354;28;20020;-75
2023/01/06 18:32:21;;;;;;;9.25;5.72;;;12.90;76.30;;;;;;5111826;28;20024;-75
2023/01/06 18:34:52;;;;;;;9.80;5.90;;;12.90;76.30;;;;;;5112769;27;20088;-76
2023/01/06 18:37:27;;;;;;;9.00;5.75;;;12.90;76.50;;;;;;5097752;27;20015;-74
2023/01/06 18:39:57;;;;;;;8.80;5.32;;;12.90;76.60;;;;;;5101945;28;20020;-75
2023/01/06 18:42:24;;;;;;;8.43;5.40;;;12.90;76.80;;;;;;5111084;27;20076;-75
2023/01/06 18:44:58;;;;;;;9.43;5.85;;;12.90;76.90;;;;;;5104486;28;20018;-75
2023/01/06 18:47:28;;;;;;;8.90;5.50;;;12.90;77.10;;;;;;5127385;27;20054;-75
2023/01/06 18:49:57;;;;;;;8.30;5.18;;;12.90;77.30;;;;;;5119423;28;20028;-73
2023/01/06 18:52:43;;;;;;;9.95;6.05;;;12.90;77.50;;;;;;5117892;28;20503;-74
2023/01/06 18:55:17;;;;;;;8.27;5.50;;;12.90;77.70;;;;;;5117255;28;20047;-74
2023/01/06 18:57:44;;;;;;;10.02;5.75;;;12.90;77.80;;;;;;5114062;27;20032;-75
2023/01/06 19:00:39;;;;;;;8.80;5.43;;;12.90;77.80;;;;;;5108710;27;20043;-75
2023/01/06 19:03:29;;;;;;;8.82;5.75;;;12.90;78.00;;;;;;5106042;27;20028;-76
2023/01/06 19:06:07;;;;;;;9.82;6.07;;;12.90;78.10;;;;;;5105107;27;20080;-75
2023/01/06 19:08:34;;;;;;;8.75;6.00;;;12.90;78.10;;;;;;5113432;28;20027;-75
2023/01/06 19:11:02;;;;;;;11.25;6.35;;;12.90;78.30;;;;;;5109972;28;20094;-76
2023/01/06 19:13:29;;;;;;;9.80;6.32;;;13.00;78.40;;;;;;5091807;28;20460;-75
2023/01/06 19:16:01;;;;;;;8.32;5.85;;;13.00;78.50;;;;;;5113020;28;20464;-75
2023/01/06 19:18:31;;;;;;;8.55;5.80;;;13.00;78.60;;;;;;5109221;28;20028;-75
2023/01/06 19:20:58;;;;;;;8.93;5.78;;;13.00;78.70;;;;;;5110655;28;20044;-75
2023/01/06 19:23:26;;;;;;;7.97;5.35;;;13.00;78.80;;;;;;5095543;28;20031;-75
2023/01/06 19:26:02;;;;;;;8.80;6.07;;;13.00;78.90;;;;;;5109572;28;20035;-75
2023/01/06 19:28:31;;;;;;;9.20;6.18;;;13.00;79.00;;;;;;5111553;28;20023;-75
2023/01/06 19:30:59;;;;;;;8.77;5.53;;;13.10;79.10;;;;;;5112480;27;20115;-75
2023/01/06 19:33:34;;;;;;;9.10;5.38;;;13.10;79.10;;;;;;5112836;27;20110;-75
2023/01/06 19:36:20;;;;;;;8.20;5.22;;;13.10;79.90;;;;;;5115079;27;20164;-74
2023/01/06 19:38:46;;;;;;;8.13;5.50;;;13.10;79.30;;;;;;5097225;28;20031;-75
2023/01/06 19:41:22;;;;;;;8.23;5.00;;;13.10;79.30;;;;;;5105190;27;21122;-75
2023/01/06 19:43:50;;;;;;;9.27;5.75;;;13.10;79.50;;;;;;5110339;28;20084;-75
2023/01/06 19:46:22;;;;;;;8.57;5.70;;;13.10;79.50;;;;;;5091708;28;20030;-76
2023/01/06 19:48:48;;;;;;;7.97;5.18;;;13.10;79.60;;;;;;5113186;28;20024;-75
2023/01/06 19:51:17;;;;;;;8.13;5.57;;;13.10;79.60;;;;;;5111852;28;20031;-76
2023/01/06 19:54:11;;;;;;;8.18;5.45;;;13.10;79.70;;;;;;5109476;28;20023;-75
2023/01/06 19:56:39;;;;;;;8.13;5.47;;;13.20;79.80;;;;;;5112082;28;20031;-75
2023/01/06 19:59:15;;;;;;;7.30;5.00;;;13.20;79.80;;;;;;5110668;28;20027;-75
2023/01/06 20:01:40;;;;;;;8.13;5.00;;;13.20;79.80;;;;;;5111123;28;20057;-74
2023/01/06 20:04:17;;;;;;;7.47;4.57;;;13.20;79.90;;;;;;5111773;28;20491;-76
2023/01/06 20:06:43;;;;;;;7.82;5.22;;;13.20;80.00;;;;;;5092128;28;20360;-75
2023/01/06 20:09:09;;;;;;;8.13;5.20;;;13.20;80.00;;;;;;5094947;28;20429;-76
2023/01/06 20:11:34;;;;;;;7.40;4.72;;;13.20;80.20;;;;;;5109704;28;20386;-75
2023/01/06 20:14:00;;;;;;;8.07;5.47;;;13.10;80.30;;;;;;5111160;28;20027;-75
2023/01/06 20:16:26;;;;;;;10.25;5.82;;;13.20;80.50;;;;;;5115429;28;20051;-75
2023/01/06 20:18:52;;;;;;;7.65;4.93;;;13.10;80.60;;;;;;5113388;28;20119;-75
2023/01/06 20:21:18;;;;;;;7.22;4.78;;;13.10;80.80;;;;;;5103814;28;20063;-75
2023/01/06 20:23:43;;;;;;;7.82;4.68;;;13.10;81.00;;;;;;5112210;28;20103;-76
2023/01/06 20:26:09;;;;;;;7.60;5.10;;;13.10;81.00;;;;;;5107903;28;20088;-75
2023/01/06 20:28:35;;;;;;;7.55;4.72;;;13.10;81.20;;;;;;5114792;28;20035;-75
2023/01/06 20:31:01;;;;;;;7.32;4.50;;;13.10;81.20;;;;;;5107144;28;20437;-75
2023/01/06 20:33:26;;;;;;;7.05;3.80;;;13.10;81.30;;;;;;5105979;28;20444;-75
2023/01/06 20:35:52;;;;;;;7.40;3.85;;;13.10;81.40;;;;;;5111231;28;21281;-74
2023/01/06 20:38:18;;;;;;;6.75;3.83;;;13.10;81.50;;;;;;5112528;28;20050;-75
2023/01/06 20:40:44;;;;;;;6.18;3.28;;;13.10;81.60;;;;;;5111175;28;20452;-75
2023/01/06 20:43:09;;;;;;;6.13;3.30;;;13.10;81.70;;;;;;5111648;28;20447;-73
2023/01/06 20:45:35;;;;;;;7.07;3.60;;;13.10;81.80;;;;;;5115522;28;20030;-74
2023/01/06 20:48:02;;;;;;;6.18;3.17;;;13.10;81.80;;;;;;5112594;28;20038;-75
2023/01/06 20:50:28;;;;;;;5.30;2.97;;;13.00;81.80;;;;;;5110071;28;20432;-74
2023/01/06 20:52:54;;;;;;;5.45;2.80;;;13.10;82.00;;;;;;5106949;28;20015;-75
2023/01/06 20:55:20;;;;;;;5.35;2.67;;;13.10;82.00;;;;;;5111766;28;20027;-75
2023/01/06 20:57:45;;;;;;;6.38;3.53;;;13.10;82.10;;;;;;5112402;28;20024;-74
2023/01/06 21:00:12;;;;;;;6.10;3.15;;;13.10;82.10;;;;;;5090267;28;20028;-75
2023/01/06 21:02:38;;;;;;;6.13;3.20;;;13.10;82.20;;;;;;5110269;28;20023;-75
2023/01/06 21:05:05;;;;;;;6.90;3.22;;;13.10;82.30;;;;;;5107909;28;20020;-75
2023/01/06 21:07:32;;;;;;;6.35;3.30;;;13.10;82.40;;;;;;5111376;28;20011;-75
2023/01/06 21:09:58;;;;;;;5.78;3.25;;;13.10;82.40;;;;;;5110350;28;20406;-75
2023/01/06 21:12:23;;;;;;;7.15;4.10;;;13.10;82.50;;;;;;5109197;28;20036;-75
2023/01/06 21:14:49;;;;;;;6.63;4.25;;;13.10;82.60;;;;;;5109395;28;20074;-75
2023/01/06 21:17:15;;;;;;;7.00;4.50;;;13.10;82.60;;;;;;5105128;28;20110;-75
2023/01/06 21:19:41;;;;;;;7.82;5.00;;;13.00;82.60;;;;;;5106206;28;20063;-75
2023/01/06 21:22:06;;;;;;;7.28;4.78;;;13.10;82.70;;;;;;5113586;27;20440;-75
2023/01/06 21:24:32;;;;;;;7.40;4.88;;;13.10;82.80;;;;;;5117524;27;20024;-75
2023/01/06 21:26:58;;;;;;;7.88;5.55;;;13.10;82.80;;;;;;5117667;27;20032;-74
2023/01/06 21:29:25;;;;;;;8.02;5.63;;;13.10;82.80;;;;;;5108535;28;20043;-74
2023/01/06 21:31:51;;;;;;;8.02;5.70;;;13.10;82.80;;;;;;5117802;28;20087;-74
2023/01/06 21:34:17;;;;;;;10.32;5.70;;;13.10;82.80;;;;;;5131197;28;20122;-74
2023/01/06 21:36:42;;;;;;;7.93;5.40;;;13.10;82.90;;;;;;5116461;28;20123;-74
2023/01/06 21:39:12;;;;;;;8.25;5.93;;;13.10;82.90;;;;;;5117513;28;20031;-75
2023/01/06 21:44:22;;;;;;;9.52;6.15;;;13.10;83.00;;;;;;5114992;28;20031;-75
2023/01/06 21:46:48;;;;;;;8.98;6.35;;;13.10;83.00;;;;;;5097524;28;20184;-75
2023/01/06 21:49:14;;;;;;;9.95;6.38;;;13.10;83.00;;;;;;5116474;28;20023;-75
2023/01/06 21:51:40;;;;;;;10.02;6.43;;;13.10;83.10;;;;;;5116682;28;20341;-75
2023/01/06 21:54:06;;;;;;;8.60;5.88;;;13.10;83.10;;;;;;5098932;28;20032;-74
2023/01/06 21:56:33;;;;;;;8.65;5.70;;;13.10;83.10;;;;;;5112945;28;20097;-75
2023/01/06 21:58:59;;;;;;;8.73;6.25;;;13.10;83.20;;;;;;5114318;28;20580;-74
2023/01/06 22:01:24;;;;;;;8.15;5.78;;;13.10;83.20;;;;;;5114876;28;20039;-74
2023/01/06 22:03:50;;;;;;;9.50;6.32;;;13.10;83.20;;;;;;5114628;28;20027;-73
2023/01/06 22:06:19;;;;;;;10.25;6.75;;;13.20;83.30;;;;;;5113679;27;20448;-74
2023/01/06 22:08:47;;;;;;;8.70;5.90;;;13.10;83.30;;;;;;5113214;27;20091;-74
2023/01/06 22:11:13;;;;;;;10.45;6.82;;;13.10;83.30;;;;;;5111634;27;20092;-73
2023/01/06 22:13:39;;;;;;;8.73;6.30;;;13.20;83.30;;;;;;5113147;28;20106;-74
2023/01/06 22:16:06;;;;;;;9.13;6.03;;;13.10;83.90;;;;;;5114873;28;20052;-73
2023/01/06 22:18:33;;;;;;;10.27;6.72;;;13.20;83.30;;;;;;5108585;28;20034;-74
2023/01/06 22:20:59;;;;;;;9.35;6.30;;;13.10;83.30;;;;;;5102506;28;20043;-74
2023/01/06 22:23:26;;;;;;;9.82;6.75;;;13.20;83.30;;;;;;5118037;27;20050;-74
2023/01/06 22:25:52;;;;;;;9.73;6.63;;;13.20;83.30;;;;;;5112210;27;20020;-74
2023/01/06 22:28:18;;;;;;;9.50;6.18;;;13.20;83.30;;;;;;5109640;28;20471;-74
2023/01/06 22:30:43;;;;;;;10.05;6.28;;;13.20;83.30;;;;;;5115598;27;20024;-73
2023/01/06 22:33:09;;;;;;;9.23;6.15;;;13.20;83.30;;;;;;5114837;28;20034;-74
2023/01/06 22:35:35;;;;;;;8.73;6.28;;;13.20;83.40;;;;;;5114787;28;20460;-73
2023/01/06 22:38:01;;;;;;;9.50;6.78;;;13.20;83.40;;;;;;5107319;28;20440;-73
2023/01/06 22:40:27;;;;;;;9.23;6.60;;;13.10;83.30;;;;;;5130120;27;20040;-74
2023/01/06 22:42:53;;;;;;;8.77;6.30;;;13.20;83.40;;;;;;5100771;28;20444;-72
2023/01/06 22:45:18;;;;;;;10.38;6.72;;;13.10;83.40;;;;;;5114897;28;20122;-72
2023/01/06 22:47:44;;;;;;;8.98;6.20;;;13.20;83.50;;;;;;5113781;28;20543;-72
2023/01/06 22:50:10;;;;;;;9.85;6.60;;;13.10;83.40;;;;;;5094856;28;20067;-72
2023/01/06 22:52:36;;;;;;;10.20;6.72;;;13.10;83.40;;;;;;5114597;28;20036;-72
2023/01/06 22:55:02;;;;;;;10.25;6.85;;;13.20;83.40;;;;;;5115767;28;20039;-73
2023/01/06 22:57:28;;;;;;;9.43;6.60;;;13.20;83.40;;;;;;5115437;28;20030;-73
2023/01/06 22:59:57;;;;;;;9.65;6.28;;;13.10;83.40;;;;;;5113650;28;20115;-73
2023/01/06 23:02:23;;;;;;;9.63;6.13;;;13.10;83.30;;;;;;5114466;28;20080;-72
2023/01/06 23:04:50;;;;;;;9.48;6.63;;;13.10;83.40;;;;;;5115363;28;20019;-73
2023/01/06 23:07:16;;;;;;;10.40;6.57;;;13.20;83.40;;;;;;5115177;28;20028;-73
2023/01/06 23:09:41;;;;;;;8.82;5.85;;;13.20;83.30;;;;;;5107737;28;20084;-74
2023/01/06 23:12:08;;;;;;;10.52;6.35;;;13.20;83.20;;;;;;5121064;27;20157;-74
2023/01/06 23:14:33;;;;;;;10.82;6.00;;;13.20;83.20;;;;;;5121200;27;20451;-73
2023/01/06 23:16:59;;;;;;;9.73;6.72;;;13.20;83.20;;;;;;5115710;28;20134;-73
2023/01/06 23:19:25;;;;;;;9.80;6.03;;;13.20;83.20;;;;;;5104509;28;20039;-73
2023/01/06 23:21:51;;;;;;;9.35;6.00;;;13.20;83.10;;;;;;5109010;28;20031;-72
2023/01/06 23:24:16;;;;;;;9.75;6.15;;;13.20;83.10;;;;;;5105963;28;20020;-73
2023/01/06 23:26:45;;;;;;;9.32;5.93;;;13.20;83.10;;;;;;5114681;28;20031;-73
2023/01/06 23:29:11;;;;;;;9.02;6.35;;;13.20;83.80;;;;;;5107685;28;20394;-73
2023/01/06 23:31:42;;;;;;;10.32;6.18;;;13.20;83.10;;;;;;5114144;28;20027;-73
2023/01/06 23:34:11;;;;;;;10.65;6.70;;;13.20;83.10;;;;;;5108735;28;20020;-73
2023/01/06 23:36:37;;;;;;;9.85;5.65;;;13.20;83.10;;;;;;5114462;28;20027;-74
2023/01/06 23:39:05;;;;;;;8.77;6.00;;;13.20;83.10;;;;;;5113609;28;20032;-73
2023/01/06 23:41:33;;;;;;;9.30;5.65;;;13.20;83.10;;;;;;5104171;28;20028;-73
2023/01/06 23:43:59;;;;;;;9.63;6.00;;;13.10;83.10;;;;;;5105342;28;20092;-73
2023/01/06 23:46:28;;;;;;;11.27;6.15;;;13.10;83.10;;;;;;5114496;28;20067;-74
2023/01/06 23:48:55;;;;;;;10.02;5.88;;;13.20;83.30;;;;;;5113444;28;20027;-73
2023/01/06 23:51:21;;;;;;;8.63;5.45;;;13.20;83.30;;;;;;5109077;28;20028;-73
2023/01/06 23:53:48;;;;;;;8.80;5.47;;;13.20;83.30;;;;;;5113521;28;20020;-73
2023/01/06 23:56:16;;;;;;;10.77;5.38;;;13.10;83.30;;;;;;5095402;28;20467;-73
2023/01/06 23:58:44;;;;;;;8.75;5.63;;;13.10;83.30;;;;;;5115702;28;20034;-73
